Terminal Aerodrome Forecast
Issued by NWS

Home | Current Version | Previous Version | Text Only | Print | Product List | Glossary On
Versions: 1 2 3 4 5 6 7 8 9 10 11 12 13 14 15 16 17 18 19 20 21 22 23 24 25 26 27 28
000
FTUS41 KBTV 261734
TAFMSS
TAF
KMSS 261734Z 2618/2718 22014KT 5SM -SHRASN BR OVC012
     FM262300 23010KT 2SM -SHSN BR OVC007
     FM271100 26007KT P6SM VCSH OVC009
     FM271700 27008KT P6SM OVC012=

USA.gov is the U.S. government's official web portal to all federal, state and local government web resources and services.